Aeroporto :
LOGIN :

Iscrizione | Disclaimer

   EN    FR    IT 

 










Sommario :    VFR   VFR Marginale   IFR   IFR Intensivo   IFR Molto Intensivo
Visibilità : 
Base nubi : 
>= 8 km
>= 3000ft
5 / 8 km
1000 / 3000 ft
1500m / 5 km
500 / 1000 ft
800 / 1500m
200 / 500 ft
< 800m
< 200 ft
Simboli :   Temporali  Nebbia  Neve Forte  Precipitazioni Forti  Vento > 20 kt
SIGMETs :   Varie  Temporali  Ghiacco  Turbolenza  Onda orograficha  Ceneri Vulcaniche






- Altitudine del aeroporto : 373 ft
- Codice IATA : OZH


UKDE - Mokraya

ULTIMO METAR :
  • 201900Z 01003MPS CAVOK 13/02 Q1022 R02R/090070 NOSIG

METARs OBSOLETI :
  • 201800Z 36003MPS CAVOK 12/01 Q1021 R02R/090070 NOSIG
  • 201730Z 35003MPS CAVOK 12/01 Q1021 R02R/090070 NOSIG
  • 201700Z 33002MPS CAVOK 13/01 Q1021 R02R/090070 NOSIG

TAF TAF UKDE
Valido dal 20 a 18 ore il 21 a 03 ore UTC


201702Z 2018/2103 36003MPS CAVOK
TEMPO 2018/2021 03003MPS
BECMG 2021/2023 05003MPS
FIR UKDV / Europa



MetMap, La meteo Aeronautica in un colpo d'occhio ! - Copyright ORBIFLY Dicembre 2007 - Disclaimer

ORBIFLY MET'MAP TEAM :

Programmazione e sviluppo : Alexandra Zaïnal
Concezione : Baudouin d'Aumeries
Aiuto per la programmazione : Marc-Olivier Méhu
Supporto tecnico e logistico : Manuel Goepfert
Aiuto per la traduzione : Arnaldo La Scala

Contatto : metmap@orbifly.com




FONTI E CREDITI :

   NOAA